Seymour Johnson Air Force Base
KGSB : now visible

Airfield :











YOU CAN JOIN US ON...

 
LOGIN :

Register | Disclaimer

   EN    FR    IT 

 









Legend :    VFR   Marginal VFR   IFR   Intensive IFR   Very Intensive IFR
Visi :
Ceiling :
>= 8 km
>= 3000ft
5 to 8 km
1000 to 3000 ft
1500m to 5 km
500 to 1000 ft
800 to 1500m
200 to 500 ft
< 800m
< 200 ft
Symbols :   Thunderstorms  Fog  Heavy snow  Heavy precipitations  Wind > 20 kt






- Airport Elevation : 109 ft


KGSB - Seymour Johnson Air Force Base

CURRENT METAR :
  • 110256Z AUTO 16004KT 10SM BKN130 21/18 A2970 RMK AO2 SLP060 T02050175 57021 $

EXPIRED METARs :
  • 110156Z AUTO 14006KT 10SM SCT140 21/17 A2972 RMK AO2 SLP066 T02050169 $
  • 110056Z AUTO 13006KT 10SM FEW180 21/16 A2975 RMK AO2 SLP077 T02120155 $

TAF TAF KGSB
Valid from the 10 at 20:00 until the 12 at 02:00 UTC


102000Z 1020/1202 23006KT 9999 SCT050 QNH2971INS
TEMPO 1020/1022 20010G15KT 8000 -TSRA BKN050CB
BECMG 1101/1102 16009KT 9000 -SHRA BKN030 QNH2967INS
TEMPO 1103/1106 18010G15KT 8000 -TSRA BKN020CB
BECMG 1106/1107 23009KT 9999 NSW BKN030 QNH2959INS
TEMPO 1122/1201 23012G20KT 8000 -TSRA BKN020CB
BECMG 1201/1202 21007KT 9999 SCT030 QNH2964INS TX28/1020Z TN17/1111Z LAST NO AMDS AFT 1020 NEXT 1104
KZDC FIR / North America



MET'MAP, your aeronautical weather chart ! - Copyright ORBIFLY December 2007 - Disclaimer

ORBIFLY MET'MAP TEAM :

Programming & Development : Alexandra Zaïnal
Concept & original design : Baudouin d'Aumeries
Assistance for programming : Marc-Olivier Méhu
Technical & hardware support : Manuel Goepfert

Contact : metmap@orbifly.com




SOURCES & CREDITS :

   NOAA       Earth
Advisory